MMMA/MAM METAR and TAF weather

Enter ICAO airport designator
Station Type Date Time Source
MMMA METAR 2020/02/24 01:41 UTC NOAA

MMMA 240141Z 15007KT 8SM SKC 21/19 A2991


Station Type Date Time Source
MMMA Decoded METAR 2020/02/24 01:41 UTC NOAA

Matamoros International , Mexico (MMMA) 25-46N 097-32W
Feb 23, 2020 - 08:41 PM EST / 2020.02.24 0141 UTC
Wind: from the SSE (150 degrees) at 8 MPH (7 KT):0
Visibility: 8 mile(s):0
Sky conditions: clear
Temperature: 69 F (21 C)
Dew Point: 66 F (19 C)
Relative Humidity: 88%
Pressure (altimeter): 29.91 in. Hg (1012 hPa)
ob: MMMA 240141Z 15007KT 8SM SKC 21/19 A2991
cycle: 1

Station Type Date Time Source
MMMA TAF 2020/02/24 06:10 UTC NOAA

TAF MMMA 240503Z 2406/2506 15007KT P6SM SKC
FM241000 18012KT P6SM SCT020
TEMPO 2410/2414 BKN020
FM241800 36010KT P6SM BKN020 BKN070 PROB40 2422/2502 5SM -RA

Example: see airport list